Portada
METAR-TAF:

METAR-TAF

Aeropuertos :

Aeropuerto Internacional Marcos A. Gelabert

Ciudad de Panamá, Panamá

latitud: 08-59N, longitud: 079-31W, altitud: 13 m

Observación

El informe se hizo hace 49 minutos, a las 04:00 UTC
Viento 6 kt del norte
Temperatura 25°C
Humedad 89%
Presión 1011 hPa

METAR: MPMG 180400Z AUTO 35006KT //// R01///// // OVC092/// 25/23 Q1011

Hora: 23:49 (04:49 UTC)

Pronóstico

El informe se hizo hace 5 horas y 49 minutos, a las 23:00 UTC
Pronóstico válido del 18 a las 00 UTC al 18 a las 12 UTC
Viento 6 kt del norte-noroeste
Visibilidad 10 km o más
Escasas nubes a una altura de 2000 ft
Temporalmente
del 18 a las 05 UTC al 18 a las 09 UTC
Visibilidad 10 km o más
sin nubes por debajo de 1500 m y sin presencia de cumulonimbus.

TAF: MPMG 172300Z 1800/1812 34006KT 9999 FEW020 TEMPO 1805/1809 CAVOK

Observaciones y pronósticos meteorológicos de más de 4000 aeropuertos (mensajes METAR y TAF).

Los puntos amarillos y rojos representan las estaciones disponibles.

Ponga el ratón en el punto deseado para ver el nombre de la estación.

Haga clic para ver las observaciones y los pronósticos meteorológicos.

Para cambiar el mapa : haga clic en los botones verdes con una cruz de color negro para hacer un zoom, en el botón verde con un guión para alejar o en las flechas verdes para mapas adyacentes.


METAR-TAF: